createdAt,value
2016-01-20T19:39:58.276Z,99.99
2016-01-20T19:40:57.279Z,99.99
2016-01-20T19:41:57.250Z,99.99
2016-01-20T19:42:57.159Z,99.99
2016-01-20T19:43:57.084Z,99.99
2016-01-20T19:44:57.148Z,99.99
2016-01-20T19:45:57.167Z,99.99
2016-01-20T19:46:57.029Z,99.99
2016-01-20T19:47:57.108Z,99.99
2016-01-20T19:48:57.096Z,99.99
2016-01-20T19:49:56.942Z,99.99
2016-01-20T19:50:56.944Z,99.44
2016-01-20T19:51:57.213Z,98.64
2016-01-20T19:52:56.856Z,98.17
2016-01-20T19:53:56.844Z,97.5
2016-01-20T19:54:56.877Z,97.08
2016-01-20T19:55:56.771Z,96.22
2016-01-20T19:56:56.773Z,96.12
2016-01-20T19:57:56.745Z,94.98
2016-01-20T19:58:56.670Z,95.08
2016-01-20T19:59:56.688Z,94.6
2016-01-20T20:00:56.676Z,94.03
2016-01-20T20:01:56.635Z,94.32
2016-01-20T20:02:56.559Z,93.84
2016-01-20T20:03:56.515Z,93.46
2016-01-20T20:04:56.518Z,93.65
2016-01-20T20:05:56.317Z,92.8
2016-01-20T20:06:56.413Z,92.99
2016-01-20T20:07:56.526Z,92.99
2016-01-20T20:08:56.357Z,92.85
2016-01-20T20:09:56.343Z,93.23
2016-01-20T20:10:56.394Z,93.04
2016-01-20T20:11:56.287Z,92.66
2016-01-20T20:12:56.243Z,92.66
2016-01-20T20:13:56.260Z,92.37
2016-01-20T20:14:56.170Z,92.37
2016-01-20T20:15:56.251Z,92.56
2016-01-20T20:16:56.113Z,92.46
2016-01-20T20:17:56.132Z,92.08
2016-01-20T20:18:56.446Z,92.08
2016-01-20T20:19:56.090Z,92.27
2016-01-20T20:20:55.999Z,92.18
2016-01-20T20:21:56.048Z,92.27
2016-01-20T20:22:55.987Z,91.85
2016-01-20T20:23:55.913Z,91.94
2016-01-20T20:24:55.932Z,91.56
2016-01-20T20:25:55.840Z,91.56
2016-01-20T20:26:55.827Z,91.75
2016-01-20T20:27:55.798Z,91.75
2016-01-20T20:28:55.817Z,91.66
2016-01-20T20:29:55.789Z,91.85
2016-01-20T20:30:55.714Z,91.66
2016-01-20T20:31:55.717Z,91.66
2016-01-20T20:32:55.703Z,91.75
2016-01-20T20:33:55.597Z,91.75
2016-01-20T20:34:55.584Z,91.75
2016-01-20T20:35:55.539Z,92.23
2016-01-20T20:36:55.542Z,91.94
2016-01-20T20:37:55.498Z,91.19
2016-01-20T20:38:55.392Z,91.28
2016-01-20T20:39:55.456Z,91.24
2016-01-20T20:40:55.412Z,91.24
2016-01-20T20:41:55.384Z,91.14
2016-01-20T20:42:55.278Z,91.33
2016-01-20T20:43:55.327Z,91.42
2016-01-20T20:44:55.236Z,91.24
2016-01-20T20:45:55.161Z,91.24
2016-01-20T20:46:55.304Z,91.71
2016-01-20T20:47:55.136Z,91.61
2016-01-20T20:48:55.122Z,91.42
2016-01-20T20:49:55.093Z,91.42
2016-01-20T20:50:55.064Z,91.33
2016-01-20T20:51:55.068Z,91.14
2016-01-20T20:52:55.008Z,90.76
2016-01-20T20:53:54.948Z,90.66
2016-01-20T20:54:54.967Z,91.14
2016-01-20T20:55:54.970Z,91.14
2016-01-20T20:56:54.925Z,91.04
2016-01-20T20:57:55.350Z,91.14
2016-01-20T21:04:09.996Z,90.85
2016-01-20T21:05:06.248Z,90.9
2016-01-20T21:06:06.095Z,90.9
2016-01-20T21:07:06.066Z,90.9
2016-01-20T21:08:06.084Z,90.9
2016-01-20T21:09:06.009Z,91.09
2016-01-20T21:10:05.949Z,90.9
2016-01-20T21:11:05.920Z,90.71
2016-01-20T21:12:05.939Z,90.71
2016-01-20T21:13:05.864Z,90.81
2016-01-20T21:14:05.851Z,91
2016-01-20T21:15:05.807Z,90.9
2016-01-20T21:16:08.216Z,90.71
2016-01-20T21:17:06.407Z,90.62
2016-01-20T21:18:05.659Z,90.52
2016-01-20T21:19:05.677Z,90.33
2016-01-20T21:20:05.665Z,90.43
2016-01-20T21:21:05.589Z,90.43
2016-01-20T21:22:05.498Z,90.33
2016-01-20T21:23:05.939Z,90.33
2016-01-20T21:24:05.548Z,90.43
2016-01-20T21:27:14.730Z,90.33
2016-01-20T21:27:49.261Z,90.62
2016-01-20T21:28:48.703Z,90.62
2016-01-20T21:29:48.626Z,90.62
2016-01-20T21:30:48.550Z,90.43
2016-01-20T21:31:48.538Z,90.81
2016-01-20T21:32:48.525Z,90.14
2016-01-20T21:33:48.497Z,89.95
2016-01-20T21:34:48.452Z,90.62
2016-01-20T21:35:48.439Z,90.71
2016-01-20T21:36:48.410Z,90.14
2016-01-20T21:37:48.429Z,90.14
2016-01-20T21:38:48.994Z,89.72
2016-01-20T21:39:48.403Z,89.33
2016-01-20T21:40:48.547Z,88.81
2016-01-20T21:41:48.283Z,88.71
2016-01-20T21:42:48.177Z,88.34
2016-01-20T21:43:48.132Z,87.57
2016-01-20T21:44:48.229Z,88.05
2016-01-20T21:45:48.186Z,87.48
2016-01-20T21:46:48.094Z,87.67
2016-01-20T21:47:48.050Z,87.76
2016-01-20T21:48:49.381Z,87.67
2016-01-20T21:49:48.039Z,87.57
2016-01-20T21:50:47.933Z,87.57
2016-01-20T21:51:48.764Z,87.57
2016-01-20T21:52:47.892Z,87.48
2016-01-20T21:53:47.801Z,87.67
2016-01-20T21:54:47.803Z,87.95
2016-01-20T21:55:47.790Z,87.95
2016-01-20T21:56:47.778Z,87.67
2016-01-20T21:57:48.812Z,87.95
2016-01-20T21:58:47.673Z,87.76
2016-01-20T21:59:47.598Z,87.76
2016-01-20T22:00:47.617Z,87.53
2016-01-20T22:01:47.712Z,88.24
2016-01-20T22:02:47.747Z,87.91
2016-01-20T22:03:47.578Z,87.91
2016-01-20T22:04:47.565Z,88.1
2016-01-20T22:05:47.520Z,87.82
2016-01-20T22:07:54.572Z,88.2
2016-01-20T22:08:49.497Z,87.72
2016-01-20T22:09:47.469Z,88.29
2016-01-20T22:10:47.399Z,88.29
2016-01-20T22:11:47.354Z,88.2
2016-01-20T22:12:47.341Z,88.2
2016-01-20T22:13:47.297Z,88.29
2016-01-20T22:14:47.221Z,88.48
2016-01-20T22:15:47.240Z,88.57
2016-01-20T22:16:47.118Z,88.57
2016-01-20T22:17:47.089Z,88.57
2016-01-20T22:18:47.060Z,88.39
2016-01-20T22:19:47.110Z,88.48
2016-01-20T22:20:46.987Z,88.43
2016-01-20T22:21:47.006Z,88.39
2016-01-20T22:22:46.962Z,88.43
2016-01-20T22:23:46.918Z,88.43
2016-01-20T22:24:46.905Z,88.06
2016-01-20T22:25:46.845Z,88.62
2016-01-20T22:26:46.831Z,88.43
2016-01-20T22:27:46.820Z,88.43
2016-01-20T22:28:46.790Z,88.72
2016-01-20T22:29:46.684Z,88.34
2016-01-20T22:30:46.671Z,88.81
2016-01-20T22:31:46.736Z,88.91
2016-01-20T22:32:46.598Z,88.81
2016-01-20T22:33:46.632Z,88.81
2016-01-20T22:34:46.526Z,88.72
2016-01-20T22:35:46.576Z,88.43
2016-01-20T22:36:46.516Z,88.81
2016-01-20T22:37:46.456Z,88.34
2016-01-20T22:38:46.427Z,88.15
2016-01-20T22:39:46.383Z,88.06
2016-01-20T22:40:46.309Z,87.24
2016-01-20T22:41:46.279Z,85.25
2016-01-20T22:42:46.267Z,83.16
2016-01-20T22:43:46.238Z,81.36
2016-01-20T22:44:46.175Z,80.83
2016-01-20T22:45:46.211Z,79.79
2016-01-20T22:46:46.164Z,78.17
2016-01-20T22:47:46.089Z,77.07
2016-01-20T22:48:46.109Z,75.93
2016-01-20T22:49:46.080Z,76.12
2016-01-20T22:50:45.989Z,77.77
2016-01-20T22:51:46.007Z,79.3
2016-01-20T22:52:45.931Z,79.62
2016-01-20T22:53:45.934Z,78.86
2016-01-20T22:54:45.921Z,78.57
2016-01-20T22:55:45.986Z,78.8
2016-01-20T22:56:45.833Z,79.94
2016-01-20T22:57:45.851Z,80.18
2016-01-20T22:58:45.822Z,81.23
2016-01-20T22:59:45.732Z,81.7
2016-01-20T23:00:45.703Z,82.08
2016-01-20T23:01:45.738Z,82.75
2016-01-20T23:02:45.678Z,82.6
2016-01-20T23:03:45.602Z,82.93
2016-01-20T23:04:45.699Z,83.03
2016-01-20T23:05:45.591Z,83.32
2016-01-20T23:06:45.548Z,83.7
2016-01-20T23:07:45.519Z,84.08
2016-01-20T23:08:45.554Z,84.36
2016-01-20T23:09:45.510Z,84.56
2016-01-20T23:10:45.434Z,84.46
2016-01-20T23:11:45.420Z,85.03
2016-01-20T23:12:45.360Z,85.03
2016-01-20T23:13:45.332Z,84.94
2016-01-20T23:14:45.288Z,85.41
2016-01-20T23:15:45.198Z,85.22
2016-01-20T23:16:45.340Z,85.75
2016-01-20T23:17:45.265Z,85.85
2016-01-20T23:18:45.174Z,85.47
2016-01-20T23:19:45.176Z,85.08
2016-01-20T23:20:45.087Z,84.56
2016-01-20T23:21:45.120Z,84.36
2016-01-20T23:22:45.263Z,83.98
2016-01-20T23:23:45.032Z,83.36
2016-01-20T23:24:45.098Z,83.07
2016-01-20T23:25:44.896Z,82.6
2016-01-20T23:26:44.993Z,82.69
2016-01-20T23:27:44.933Z,82.5
2016-01-20T23:28:44.967Z,82.5
2016-01-20T23:29:44.814Z,82.56
2016-01-20T23:30:44.847Z,82.75
2016-01-20T23:31:44.850Z,82.93
2016-01-20T23:32:44.759Z,82.84
2016-01-20T23:33:44.762Z,82.75
2016-01-20T23:34:44.670Z,82.93
2016-01-20T23:35:44.688Z,83.03
2016-01-20T23:36:44.691Z,83.03
2016-01-20T23:37:44.616Z,83.47
2016-01-20T23:38:44.556Z,83.37
2016-01-20T23:39:44.528Z,83.18
2016-01-20T23:40:44.547Z,83.28
2016-01-20T23:41:44.518Z,84.04
2016-01-20T23:42:44.488Z,83.94
2016-01-20T23:43:44.491Z,83.65
2016-01-20T23:44:44.369Z,83.81
2016-01-20T23:45:44.388Z,84
2016-01-20T23:46:44.313Z,84
2016-01-20T23:47:44.284Z,84
2016-01-20T23:48:44.286Z,84.28
2016-01-20T23:49:44.289Z,84.47
2016-01-20T23:50:44.292Z,84.66
2016-01-20T23:51:44.232Z,84.47
2016-01-20T23:52:44.157Z,84.47
2016-01-20T23:53:44.159Z,84.62
2016-01-20T23:54:44.099Z,84.81
2016-01-20T23:55:44.086Z,84.91
2016-01-20T23:56:44.058Z,85.19
2016-01-20T23:57:43.998Z,84.72
2016-01-20T23:58:43.939Z,85
2016-01-20T23:59:44.003Z,85.1
